sensor_id;sensor_type;location;lat;lon;timestamp;temperature;humidity
10964;DHT22;5534;48.784;9.190;2022-07-18T00:00:44;21.60;76.80
10964;DHT22;5534;48.784;9.190;2022-07-18T00:03:10;21.70;76.70
10964;DHT22;5534;48.784;9.190;2022-07-18T00:05:36;22.00;76.80
10964;DHT22;5534;48.784;9.190;2022-07-18T00:08:01;22.20;75.80
10964;DHT22;5534;48.784;9.190;2022-07-18T00:10:27;22.10;76.00
10964;DHT22;5534;48.784;9.190;2022-07-18T00:12:53;21.90;76.90
10964;DHT22;5534;48.784;9.190;2022-07-18T00:15:19;21.70;77.30
10964;DHT22;5534;48.784;9.190;2022-07-18T00:17:45;21.50;78.00
10964;DHT22;5534;48.784;9.190;2022-07-18T00:20:11;21.40;78.00
10964;DHT22;5534;48.784;9.190;2022-07-18T00:22:37;21.40;78.40
10964;DHT22;5534;48.784;9.190;2022-07-18T00:25:03;21.40;78.70
10964;DHT22;5534;48.784;9.190;2022-07-18T00:27:30;21.70;78.10
10964;DHT22;5534;48.784;9.190;2022-07-18T00:29:56;21.80;77.70
10964;DHT22;5534;48.784;9.190;2022-07-18T00:32:21;21.70;77.40
10964;DHT22;5534;48.784;9.190;2022-07-18T00:34:47;21.70;77.90
10964;DHT22;5534;48.784;9.190;2022-07-18T00:37:13;21.50;77.80
10964;DHT22;5534;48.784;9.190;2022-07-18T00:39:39;21.70;77.80
10964;DHT22;5534;48.784;9.190;2022-07-18T00:42:04;21.90;77.10
10964;DHT22;5534;48.784;9.190;2022-07-18T00:44:30;21.90;77.20
10964;DHT22;5534;48.784;9.190;2022-07-18T00:47:00;21.90;76.40
10964;DHT22;5534;48.784;9.190;2022-07-18T00:49:27;21.90;76.10
10964;DHT22;5534;48.784;9.190;2022-07-18T00:51:52;21.90;76.70
10964;DHT22;5534;48.784;9.190;2022-07-18T00:54:19;21.80;75.80
10964;DHT22;5534;48.784;9.190;2022-07-18T00:56:45;21.90;75.80
10964;DHT22;5534;48.784;9.190;2022-07-18T00:59:13;21.80;75.10
10964;DHT22;5534;48.784;9.190;2022-07-18T01:01:39;21.60;74.50
10964;DHT22;5534;48.784;9.190;2022-07-18T01:04:10;21.30;74.40
10964;DHT22;5534;48.784;9.190;2022-07-18T01:06:36;21.10;74.80
10964;DHT22;5534;48.784;9.190;2022-07-18T01:09:02;21.10;75.60
10964;DHT22;5534;48.784;9.190;2022-07-18T01:11:28;21.40;75.90
10964;DHT22;5534;48.784;9.190;2022-07-18T01:13:54;21.70;75.50
10964;DHT22;5534;48.784;9.190;2022-07-18T01:16:20;21.80;75.80
10964;DHT22;5534;48.784;9.190;2022-07-18T01:18:48;21.90;75.70
10964;DHT22;5534;48.784;9.190;2022-07-18T01:21:15;22.00;75.80
10964;DHT22;5534;48.784;9.190;2022-07-18T01:23:41;22.00;76.80
10964;DHT22;5534;48.784;9.190;2022-07-18T01:26:07;21.80;76.50
10964;DHT22;5534;48.784;9.190;2022-07-18T01:28:33;21.40;78.00
10964;DHT22;5534;48.784;9.190;2022-07-18T01:30:59;21.40;78.10
10964;DHT22;5534;48.784;9.190;2022-07-18T01:33:25;21.30;78.40
10964;DHT22;5534;48.784;9.190;2022-07-18T01:35:50;21.10;78.80
10964;DHT22;5534;48.784;9.190;2022-07-18T01:38:16;21.30;79.30
10964;DHT22;5534;48.784;9.190;2022-07-18T01:40:44;21.50;78.10
10964;DHT22;5534;48.784;9.190;2022-07-18T01:43:09;21.60;77.50
10964;DHT22;5534;48.784;9.190;2022-07-18T01:45:35;21.60;76.60
10964;DHT22;5534;48.784;9.190;2022-07-18T01:48:01;21.50;76.50
10964;DHT22;5534;48.784;9.190;2022-07-18T01:50:27;21.40;77.50
10964;DHT22;5534;48.784;9.190;2022-07-18T01:52:53;21.00;77.70
10964;DHT22;5534;48.784;9.190;2022-07-18T01:55:19;20.50;79.20
10964;DHT22;5534;48.784;9.190;2022-07-18T01:57:44;20.20;80.40
10964;DHT22;5534;48.784;9.190;2022-07-18T02:00:11;20.30;80.70
10964;DHT22;5534;48.784;9.190;2022-07-18T02:02:37;20.30;80.90
10964;DHT22;5534;48.784;9.190;2022-07-18T02:05:05;20.50;80.80
10964;DHT22;5534;48.784;9.190;2022-07-18T02:07:40;20.70;81.50
10964;DHT22;5534;48.784;9.190;2022-07-18T02:10:13;21.00;79.60
10964;DHT22;5534;48.784;9.190;2022-07-18T02:12:39;21.00;79.20
10964;DHT22;5534;48.784;9.190;2022-07-18T02:15:06;21.30;79.40
10964;DHT22;5534;48.784;9.190;2022-07-18T02:17:33;21.40;79.20
10964;DHT22;5534;48.784;9.190;2022-07-18T02:19:59;21.50;78.80
10964;DHT22;5534;48.784;9.190;2022-07-18T02:22:25;21.40;79.00
10964;DHT22;5534;48.784;9.190;2022-07-18T02:24:51;21.40;79.40
10964;DHT22;5534;48.784;9.190;2022-07-18T02:27:18;21.30;80.40
10964;DHT22;5534;48.784;9.190;2022-07-18T02:29:44;21.30;80.10
10964;DHT22;5534;48.784;9.190;2022-07-18T02:32:10;21.10;80.40
10964;DHT22;5534;48.784;9.190;2022-07-18T02:34:36;21.10;81.30
10964;DHT22;5534;48.784;9.190;2022-07-18T02:37:02;21.20;80.80
10964;DHT22;5534;48.784;9.190;2022-07-18T02:39:29;21.20;79.50
10964;DHT22;5534;48.784;9.190;2022-07-18T02:41:55;21.30;78.80
10964;DHT22;5534;48.784;9.190;2022-07-18T02:44:21;21.30;78.10
10964;DHT22;5534;48.784;9.190;2022-07-18T02:46:47;21.30;77.70
10964;DHT22;5534;48.784;9.190;2022-07-18T02:49:13;21.20;78.00
10964;DHT22;5534;48.784;9.190;2022-07-18T02:52:01;21.20;78.70
10964;DHT22;5534;48.784;9.190;2022-07-18T02:54:29;21.20;77.10
10964;DHT22;5534;48.784;9.190;2022-07-18T02:56:55;21.20;77.30
10964;DHT22;5534;48.784;9.190;2022-07-18T02:59:21;21.10;77.90
10964;DHT22;5534;48.784;9.190;2022-07-18T03:01:47;21.10;78.40
10964;DHT22;5534;48.784;9.190;2022-07-18T03:04:15;21.10;79.20
10964;DHT22;5534;48.784;9.190;2022-07-18T03:06:40;20.90;80.20
10964;DHT22;5534;48.784;9.190;2022-07-18T03:09:07;20.80;80.30
10964;DHT22;5534;48.784;9.190;2022-07-18T03:11:32;20.70;79.60
10964;DHT22;5534;48.784;9.190;2022-07-18T03:13:58;20.70;79.80
10964;DHT22;5534;48.784;9.190;2022-07-18T03:16:24;20.50;79.70
10964;DHT22;5534;48.784;9.190;2022-07-18T03:18:51;20.00;80.30
10964;DHT22;5534;48.784;9.190;2022-07-18T03:21:16;19.80;81.60
10964;DHT22;5534;48.784;9.190;2022-07-18T03:23:42;20.00;82.00
10964;DHT22;5534;48.784;9.190;2022-07-18T03:26:08;19.90;81.60
10964;DHT22;5534;48.784;9.190;2022-07-18T03:28:34;19.90;82.50
10964;DHT22;5534;48.784;9.190;2022-07-18T03:31:00;19.80;83.30
10964;DHT22;5534;48.784;9.190;2022-07-18T03:33:26;20.00;82.50
10964;DHT22;5534;48.784;9.190;2022-07-18T03:35:52;20.40;82.50
10964;DHT22;5534;48.784;9.190;2022-07-18T03:38:18;20.50;82.10
10964;DHT22;5534;48.784;9.190;2022-07-18T03:40:44;20.50;81.80
10964;DHT22;5534;48.784;9.190;2022-07-18T03:43:10;20.30;82.50
10964;DHT22;5534;48.784;9.190;2022-07-18T03:45:36;20.20;82.80
10964;DHT22;5534;48.784;9.190;2022-07-18T03:48:01;20.40;82.50
10964;DHT22;5534;48.784;9.190;2022-07-18T03:50:27;20.50;81.30
10964;DHT22;5534;48.784;9.190;2022-07-18T03:52:53;20.50;81.70
10964;DHT22;5534;48.784;9.190;2022-07-18T03:55:20;20.60;81.20
10964;DHT22;5534;48.784;9.190;2022-07-18T03:57:46;20.60;81.00
10964;DHT22;5534;48.784;9.190;2022-07-18T04:00:12;20.70;81.50
10964;DHT22;5534;48.784;9.190;2022-07-18T04:02:43;20.70;81.90
10964;DHT22;5534;48.784;9.190;2022-07-18T04:05:10;20.60;82.60
10964;DHT22;5534;48.784;9.190;2022-07-18T04:07:36;20.50;83.70
10964;DHT22;5534;48.784;9.190;2022-07-18T04:10:04;20.50;84.10
10964;DHT22;5534;48.784;9.190;2022-07-18T04:12:30;20.40;84.10
10964;DHT22;5534;48.784;9.190;2022-07-18T04:14:56;19.90;85.20
10964;DHT22;5534;48.784;9.190;2022-07-18T04:17:22;19.70;86.30
10964;DHT22;5534;48.784;9.190;2022-07-18T04:19:48;19.80;87.10
10964;DHT22;5534;48.784;9.190;2022-07-18T04:22:14;19.70;86.70
10964;DHT22;5534;48.784;9.190;2022-07-18T04:24:39;19.80;87.90
10964;DHT22;5534;48.784;9.190;2022-07-18T04:27:05;20.10;87.90
10964;DHT22;5534;48.784;9.190;2022-07-18T04:29:31;20.30;87.10
10964;DHT22;5534;48.784;9.190;2022-07-18T04:31:58;20.50;88.30
10964;DHT22;5534;48.784;9.190;2022-07-18T04:34:24;20.20;88.90
10964;DHT22;5534;48.784;9.190;2022-07-18T04:36:49;20.10;88.50
10964;DHT22;5534;48.784;9.190;2022-07-18T04:39:15;20.30;88.90
10964;DHT22;5534;48.784;9.190;2022-07-18T04:41:43;20.50;89.80
10964;DHT22;5534;48.784;9.190;2022-07-18T04:44:09;20.60;89.50
10964;DHT22;5534;48.784;9.190;2022-07-18T04:46:35;20.70;88.20
10964;DHT22;5534;48.784;9.190;2022-07-18T04:49:01;20.70;88.70
10964;DHT22;5534;48.784;9.190;2022-07-18T04:51:27;20.40;87.40
10964;DHT22;5534;48.784;9.190;2022-07-18T04:53:53;20.50;87.30
10964;DHT22;5534;48.784;9.190;2022-07-18T04:56:23;20.50;86.60
10964;DHT22;5534;48.784;9.190;2022-07-18T04:58:49;20.50;86.30
10964;DHT22;5534;48.784;9.190;2022-07-18T05:01:15;20.40;85.90
10964;DHT22;5534;48.784;9.190;2022-07-18T05:03:41;20.60;85.50
10964;DHT22;5534;48.784;9.190;2022-07-18T05:06:07;20.50;85.80
10964;DHT22;5534;48.784;9.190;2022-07-18T05:08:32;20.20;85.50
10964;DHT22;5534;48.784;9.190;2022-07-18T05:10:58;20.00;86.60
10964;DHT22;5534;48.784;9.190;2022-07-18T05:13:26;20.00;87.50
10964;DHT22;5534;48.784;9.190;2022-07-18T05:15:52;19.90;87.30
10964;DHT22;5534;48.784;9.190;2022-07-18T05:18:17;19.90;85.90
10964;DHT22;5534;48.784;9.190;2022-07-18T05:20:43;20.00;85.70
10964;DHT22;5534;48.784;9.190;2022-07-18T05:23:09;20.30;84.90
10964;DHT22;5534;48.784;9.190;2022-07-18T05:25:35;20.40;84.40
10964;DHT22;5534;48.784;9.190;2022-07-18T05:28:01;20.60;83.70
10964;DHT22;5534;48.784;9.190;2022-07-18T05:30:27;20.30;84.50
10964;DHT22;5534;48.784;9.190;2022-07-18T05:32:52;20.50;84.40
10964;DHT22;5534;48.784;9.190;2022-07-18T05:35:19;20.60;84.60
10964;DHT22;5534;48.784;9.190;2022-07-18T05:37:45;20.60;84.70
10964;DHT22;5534;48.784;9.190;2022-07-18T05:40:12;20.50;85.00
10964;DHT22;5534;48.784;9.190;2022-07-18T05:42:39;20.40;85.50
10964;DHT22;5534;48.784;9.190;2022-07-18T05:45:06;20.60;86.20
10964;DHT22;5534;48.784;9.190;2022-07-18T05:47:32;20.90;88.50
10964;DHT22;5534;48.784;9.190;2022-07-18T05:49:58;20.90;89.10
10964;DHT22;5534;48.784;9.190;2022-07-18T05:52:24;20.90;89.90
10964;DHT22;5534;48.784;9.190;2022-07-18T05:54:50;20.90;90.00
10964;DHT22;5534;48.784;9.190;2022-07-18T05:57:17;20.90;90.30
10964;DHT22;5534;48.784;9.190;2022-07-18T05:59:43;20.90;90.40
10964;DHT22;5534;48.784;9.190;2022-07-18T06:02:08;20.90;90.30
10964;DHT22;5534;48.784;9.190;2022-07-18T06:04:34;20.90;90.40
10964;DHT22;5534;48.784;9.190;2022-07-18T06:07:00;20.80;90.80
10964;DHT22;5534;48.784;9.190;2022-07-18T06:09:26;20.70;90.90
10964;DHT22;5534;48.784;9.190;2022-07-18T06:11:58;20.70;91.00
10964;DHT22;5534;48.784;9.190;2022-07-18T06:14:24;20.80;91.30
10964;DHT22;5534;48.784;9.190;2022-07-18T06:16:50;20.90;91.40
10964;DHT22;5534;48.784;9.190;2022-07-18T06:19:16;21.00;91.60
10964;DHT22;5534;48.784;9.190;2022-07-18T06:21:42;21.20;91.40
10964;DHT22;5534;48.784;9.190;2022-07-18T06:24:08;21.50;91.40
10964;DHT22;5534;48.784;9.190;2022-07-18T06:26:33;22.10;90.30
10964;DHT22;5534;48.784;9.190;2022-07-18T06:28:59;22.90;88.70
10964;DHT22;5534;48.784;9.190;2022-07-18T06:31:25;23.30;87.20
10964;DHT22;5534;48.784;9.190;2022-07-18T06:33:51;23.80;86.00
10964;DHT22;5534;48.784;9.190;2022-07-18T06:36:16;24.00;85.10
10964;DHT22;5534;48.784;9.190;2022-07-18T06:38:43;24.20;84.40
10964;DHT22;5534;48.784;9.190;2022-07-18T06:41:09;24.50;83.80
10964;DHT22;5534;48.784;9.190;2022-07-18T06:43:39;24.80;83.00
10964;DHT22;5534;48.784;9.190;2022-07-18T06:46:08;24.90;82.20
10964;DHT22;5534;48.784;9.190;2022-07-18T06:48:36;25.10;82.10
10964;DHT22;5534;48.784;9.190;2022-07-18T06:51:04;25.20;82.10
10964;DHT22;5534;48.784;9.190;2022-07-18T06:53:31;25.40;81.10
10964;DHT22;5534;48.784;9.190;2022-07-18T06:55:58;25.70;80.60
10964;DHT22;5534;48.784;9.190;2022-07-18T06:58:24;25.90;80.20
10964;DHT22;5534;48.784;9.190;2022-07-18T07:00:50;26.00;80.00
10964;DHT22;5534;48.784;9.190;2022-07-18T07:03:16;26.30;79.30
10964;DHT22;5534;48.784;9.190;2022-07-18T07:05:42;26.50;78.90
10964;DHT22;5534;48.784;9.190;2022-07-18T07:08:08;26.50;78.60
10964;DHT22;5534;48.784;9.190;2022-07-18T07:10:34;26.40;78.70
10964;DHT22;5534;48.784;9.190;2022-07-18T07:13:00;26.40;79.10
10964;DHT22;5534;48.784;9.190;2022-07-18T07:15:26;26.50;78.90
10964;DHT22;5534;48.784;9.190;2022-07-18T07:17:52;26.70;78.60
10964;DHT22;5534;48.784;9.190;2022-07-18T07:20:18;26.90;77.80
10964;DHT22;5534;48.784;9.190;2022-07-18T07:22:51;27.00;77.70
10964;DHT22;5534;48.784;9.190;2022-07-18T07:25:19;27.00;77.80
10964;DHT22;5534;48.784;9.190;2022-07-18T07:27:45;27.10;77.60
10964;DHT22;5534;48.784;9.190;2022-07-18T07:30:12;27.20;77.60
10964;DHT22;5534;48.784;9.190;2022-07-18T07:32:39;27.40;77.30
10964;DHT22;5534;48.784;9.190;2022-07-18T07:35:08;27.40;76.90
10964;DHT22;5534;48.784;9.190;2022-07-18T07:37:41;27.40;76.80
10964;DHT22;5534;48.784;9.190;2022-07-18T07:40:08;27.10;76.90
10964;DHT22;5534;48.784;9.190;2022-07-18T07:42:34;27.30;76.70
10964;DHT22;5534;48.784;9.190;2022-07-18T07:45:00;27.40;76.20
10964;DHT22;5534;48.784;9.190;2022-07-18T07:47:26;27.70;76.00
10964;DHT22;5534;48.784;9.190;2022-07-18T07:49:51;27.60;75.70
10964;DHT22;5534;48.784;9.190;2022-07-18T07:52:18;27.70;75.80
10964;DHT22;5534;48.784;9.190;2022-07-18T07:54:46;27.90;75.30
10964;DHT22;5534;48.784;9.190;2022-07-18T07:57:12;28.10;74.60
10964;DHT22;5534;48.784;9.190;2022-07-18T07:59:38;28.20;75.00
10964;DHT22;5534;48.784;9.190;2022-07-18T08:02:04;28.40;74.10
10964;DHT22;5534;48.784;9.190;2022-07-18T08:04:30;28.50;73.40
10964;DHT22;5534;48.784;9.190;2022-07-18T08:06:56;28.50;73.50
10964;DHT22;5534;48.784;9.190;2022-07-18T08:09:22;28.80;73.30
10964;DHT22;5534;48.784;9.190;2022-07-18T08:11:48;29.30;71.90
10964;DHT22;5534;48.784;9.190;2022-07-18T08:14:14;29.20;71.50
10964;DHT22;5534;48.784;9.190;2022-07-18T08:16:40;29.10;71.00
10964;DHT22;5534;48.784;9.190;2022-07-18T08:19:06;29.10;71.30
10964;DHT22;5534;48.784;9.190;2022-07-18T08:21:33;29.20;71.20
10964;DHT22;5534;48.784;9.190;2022-07-18T08:23:59;29.40;70.70
10964;DHT22;5534;48.784;9.190;2022-07-18T08:26:25;29.40;70.50
10964;DHT22;5534;48.784;9.190;2022-07-18T08:28:51;29.60;71.10
10964;DHT22;5534;48.784;9.190;2022-07-18T08:31:18;29.80;69.50
10964;DHT22;5534;48.784;9.190;2022-07-18T08:33:45;30.00;69.70
10964;DHT22;5534;48.784;9.190;2022-07-18T08:36:11;30.20;68.30
10964;DHT22;5534;48.784;9.190;2022-07-18T08:38:37;30.50;68.00
10964;DHT22;5534;48.784;9.190;2022-07-18T08:41:03;30.40;67.60
10964;DHT22;5534;48.784;9.190;2022-07-18T08:43:29;30.10;67.60
10964;DHT22;5534;48.784;9.190;2022-07-18T08:45:57;30.00;67.60
10964;DHT22;5534;48.784;9.190;2022-07-18T08:48:27;29.90;67.50
10964;DHT22;5534;48.784;9.190;2022-07-18T08:50:52;29.60;67.30
10964;DHT22;5534;48.784;9.190;2022-07-18T08:53:19;29.60;67.40
10964;DHT22;5534;48.784;9.190;2022-07-18T08:55:46;29.40;67.20
10964;DHT22;5534;48.784;9.190;2022-07-18T08:58:12;29.20;67.30
10964;DHT22;5534;48.784;9.190;2022-07-18T09:00:40;29.20;67.30
10964;DHT22;5534;48.784;9.190;2022-07-18T09:03:07;29.00;67.50
10964;DHT22;5534;48.784;9.190;2022-07-18T09:05:33;28.80;67.50
10964;DHT22;5534;48.784;9.190;2022-07-18T09:08:14;28.80;68.30
10964;DHT22;5534;48.784;9.190;2022-07-18T09:10:51;28.90;67.10
10964;DHT22;5534;48.784;9.190;2022-07-18T09:13:25;28.70;66.00
10964;DHT22;5534;48.784;9.190;2022-07-18T09:16:04;28.50;65.70
10964;DHT22;5534;48.784;9.190;2022-07-18T09:18:36;28.50;65.30
10964;DHT22;5534;48.784;9.190;2022-07-18T09:21:05;28.60;65.10
10964;DHT22;5534;48.784;9.190;2022-07-18T09:23:34;28.70;65.00
10964;DHT22;5534;48.784;9.190;2022-07-18T09:26:01;28.90;64.30
10964;DHT22;5534;48.784;9.190;2022-07-18T09:28:29;28.80;62.70
10964;DHT22;5534;48.784;9.190;2022-07-18T09:30:55;28.80;62.90
10964;DHT22;5534;48.784;9.190;2022-07-18T09:33:22;28.90;62.70
10964;DHT22;5534;48.784;9.190;2022-07-18T09:35:51;28.90;62.40
10964;DHT22;5534;48.784;9.190;2022-07-18T09:38:20;28.80;62.10
10964;DHT22;5534;48.784;9.190;2022-07-18T09:40:51;28.90;61.90
10964;DHT22;5534;48.784;9.190;2022-07-18T09:43:22;28.90;61.80
10964;DHT22;5534;48.784;9.190;2022-07-18T09:45:50;29.00;61.60
10964;DHT22;5534;48.784;9.190;2022-07-18T09:48:19;29.10;60.20
10964;DHT22;5534;48.784;9.190;2022-07-18T09:53:19;29.20;60.00
10964;DHT22;5534;48.784;9.190;2022-07-18T09:55:50;29.20;59.70
10964;DHT22;5534;48.784;9.190;2022-07-18T09:58:24;29.20;59.50
10964;DHT22;5534;48.784;9.190;2022-07-18T10:00:51;29.20;59.30
10964;DHT22;5534;48.784;9.190;2022-07-18T10:03:18;29.10;59.50
10964;DHT22;5534;48.784;9.190;2022-07-18T10:05:46;29.10;59.30
10964;DHT22;5534;48.784;9.190;2022-07-18T10:08:14;29.10;59.20
10964;DHT22;5534;48.784;9.190;2022-07-18T10:10:41;29.20;59.80
10964;DHT22;5534;48.784;9.190;2022-07-18T10:13:08;29.30;59.30
10964;DHT22;5534;48.784;9.190;2022-07-18T10:15:37;29.40;58.50
10964;DHT22;5534;48.784;9.190;2022-07-18T10:18:06;29.40;59.00
10964;DHT22;5534;48.784;9.190;2022-07-18T10:20:45;29.60;58.30
10964;DHT22;5534;48.784;9.190;2022-07-18T10:23:30;29.60;57.90
10964;DHT22;5534;48.784;9.190;2022-07-18T10:26:17;29.60;57.60
10964;DHT22;5534;48.784;9.190;2022-07-18T10:31:29;29.60;57.10
10964;DHT22;5534;48.784;9.190;2022-07-18T10:34:13;29.70;55.80
10964;DHT22;5534;48.784;9.190;2022-07-18T10:39:21;29.60;54.90
10964;DHT22;5534;48.784;9.190;2022-07-18T11:00:17;30.20;55.40
10964;DHT22;5534;48.784;9.190;2022-07-18T11:03:05;30.20;56.20
10964;DHT22;5534;48.784;9.190;2022-07-18T11:05:36;30.50;55.10
10964;DHT22;5534;48.784;9.190;2022-07-18T11:16:23;30.10;55.10
10964;DHT22;5534;48.784;9.190;2022-07-18T11:23:44;30.40;53.30
10964;DHT22;5534;48.784;9.190;2022-07-18T11:26:17;30.50;54.40
10964;DHT22;5534;48.784;9.190;2022-07-18T11:28:44;30.50;52.90
10964;DHT22;5534;48.784;9.190;2022-07-18T11:31:12;30.50;53.60
10964;DHT22;5534;48.784;9.190;2022-07-18T11:33:45;30.40;52.90
10964;DHT22;5534;48.784;9.190;2022-07-18T11:36:16;30.40;53.20
10964;DHT22;5534;48.784;9.190;2022-07-18T11:41:15;30.40;53.10
10964;DHT22;5534;48.784;9.190;2022-07-18T11:43:44;30.70;52.40
10964;DHT22;5534;48.784;9.190;2022-07-18T11:46:12;30.70;52.80
10964;DHT22;5534;48.784;9.190;2022-07-18T11:48:39;30.80;52.90
10964;DHT22;5534;48.784;9.190;2022-07-18T11:51:09;30.90;53.60
10964;DHT22;5534;48.784;9.190;2022-07-18T11:53:35;30.90;52.40
10964;DHT22;5534;48.784;9.190;2022-07-18T11:56:05;30.90;53.80
10964;DHT22;5534;48.784;9.190;2022-07-18T11:58:38;31.00;52.80
10964;DHT22;5534;48.784;9.190;2022-07-18T12:01:04;30.90;53.20
10964;DHT22;5534;48.784;9.190;2022-07-18T12:03:34;30.80;52.40
10964;DHT22;5534;48.784;9.190;2022-07-18T12:06:10;30.90;51.50
10964;DHT22;5534;48.784;9.190;2022-07-18T12:13:58;31.10;51.20
10964;DHT22;5534;48.784;9.190;2022-07-18T12:27:22;31.20;54.00
10964;DHT22;5534;48.784;9.190;2022-07-18T12:32:53;30.90;52.80
10964;DHT22;5534;48.784;9.190;2022-07-18T12:35:33;31.00;53.60
10964;DHT22;5534;48.784;9.190;2022-07-18T12:43:12;31.20;52.10
10964;DHT22;5534;48.784;9.190;2022-07-18T12:45:39;31.00;53.40
10964;DHT22;5534;48.784;9.190;2022-07-18T12:48:07;30.90;54.00
10964;DHT22;5534;48.784;9.190;2022-07-18T12:50:33;30.90;52.80
10964;DHT22;5534;48.784;9.190;2022-07-18T12:53:00;31.00;52.60
10964;DHT22;5534;48.784;9.190;2022-07-18T12:55:26;31.00;52.90
10964;DHT22;5534;48.784;9.190;2022-07-18T12:57:52;31.00;52.80
10964;DHT22;5534;48.784;9.190;2022-07-18T13:00:19;31.00;53.60
10964;DHT22;5534;48.784;9.190;2022-07-18T13:02:46;31.10;54.50
10964;DHT22;5534;48.784;9.190;2022-07-18T13:05:13;31.10;52.70
10964;DHT22;5534;48.784;9.190;2022-07-18T13:07:39;31.10;53.00
10964;DHT22;5534;48.784;9.190;2022-07-18T13:10:05;31.10;52.70
10964;DHT22;5534;48.784;9.190;2022-07-18T13:12:31;31.00;53.30
10964;DHT22;5534;48.784;9.190;2022-07-18T13:14:57;31.10;52.80
10964;DHT22;5534;48.784;9.190;2022-07-18T13:17:23;31.20;52.20
10964;DHT22;5534;48.784;9.190;2022-07-18T13:19:48;31.00;52.80
10964;DHT22;5534;48.784;9.190;2022-07-18T13:22:16;31.00;54.30
10964;DHT22;5534;48.784;9.190;2022-07-18T13:24:41;31.00;52.80
10964;DHT22;5534;48.784;9.190;2022-07-18T13:27:07;31.10;52.90
10964;DHT22;5534;48.784;9.190;2022-07-18T13:29:34;31.10;55.80
10964;DHT22;5534;48.784;9.190;2022-07-18T13:31:59;31.20;52.70
10964;DHT22;5534;48.784;9.190;2022-07-18T13:34:27;31.20;52.50
10964;DHT22;5534;48.784;9.190;2022-07-18T13:36:53;31.10;53.60
10964;DHT22;5534;48.784;9.190;2022-07-18T13:39:19;31.10;53.20
10964;DHT22;5534;48.784;9.190;2022-07-18T13:41:46;31.20;53.10
10964;DHT22;5534;48.784;9.190;2022-07-18T13:44:13;31.00;55.10
10964;DHT22;5534;48.784;9.190;2022-07-18T13:46:38;31.10;53.10
10964;DHT22;5534;48.784;9.190;2022-07-18T13:49:07;31.00;53.80
10964;DHT22;5534;48.784;9.190;2022-07-18T13:51:33;31.00;52.50
10964;DHT22;5534;48.784;9.190;2022-07-18T13:54:00;31.00;54.00
10964;DHT22;5534;48.784;9.190;2022-07-18T13:56:26;30.90;54.80
10964;DHT22;5534;48.784;9.190;2022-07-18T13:58:51;30.90;53.60
10964;DHT22;5534;48.784;9.190;2022-07-18T14:01:18;31.10;53.60
10964;DHT22;5534;48.784;9.190;2022-07-18T14:03:43;31.10;54.90
10964;DHT22;5534;48.784;9.190;2022-07-18T14:06:09;31.00;55.60
10964;DHT22;5534;48.784;9.190;2022-07-18T14:08:35;30.90;53.50
10964;DHT22;5534;48.784;9.190;2022-07-18T14:11:03;30.90;56.00
10964;DHT22;5534;48.784;9.190;2022-07-18T14:13:28;30.90;56.10
10964;DHT22;5534;48.784;9.190;2022-07-18T14:15:54;30.90;55.00
10964;DHT22;5534;48.784;9.190;2022-07-18T14:18:20;30.90;53.60
10964;DHT22;5534;48.784;9.190;2022-07-18T14:20:46;31.00;53.90
10964;DHT22;5534;48.784;9.190;2022-07-18T14:23:12;31.10;54.10
10964;DHT22;5534;48.784;9.190;2022-07-18T14:25:38;30.80;56.20
10964;DHT22;5534;48.784;9.190;2022-07-18T14:28:04;31.00;53.40
10964;DHT22;5534;48.784;9.190;2022-07-18T14:30:30;31.00;55.10
10964;DHT22;5534;48.784;9.190;2022-07-18T14:32:56;30.80;54.10
10964;DHT22;5534;48.784;9.190;2022-07-18T14:35:21;30.80;54.40
10964;DHT22;5534;48.784;9.190;2022-07-18T14:37:47;30.80;55.90
10964;DHT22;5534;48.784;9.190;2022-07-18T14:40:13;30.80;55.30
10964;DHT22;5534;48.784;9.190;2022-07-18T14:42:39;30.90;54.50
10964;DHT22;5534;48.784;9.190;2022-07-18T14:45:05;31.10;55.20
10964;DHT22;5534;48.784;9.190;2022-07-18T14:47:31;31.00;55.40
10964;DHT22;5534;48.784;9.190;2022-07-18T14:49:58;31.10;54.20
10964;DHT22;5534;48.784;9.190;2022-07-18T14:52:24;31.30;54.90
10964;DHT22;5534;48.784;9.190;2022-07-18T14:54:50;31.30;54.60
10964;DHT22;5534;48.784;9.190;2022-07-18T14:57:16;31.30;54.20
10964;DHT22;5534;48.784;9.190;2022-07-18T14:59:42;31.20;54.50
10964;DHT22;5534;48.784;9.190;2022-07-18T15:02:08;30.90;55.80
10964;DHT22;5534;48.784;9.190;2022-07-18T15:04:34;30.80;57.30
10964;DHT22;5534;48.784;9.190;2022-07-18T15:07:02;30.70;54.50
10964;DHT22;5534;48.784;9.190;2022-07-18T15:09:28;30.90;54.00
10964;DHT22;5534;48.784;9.190;2022-07-18T15:11:53;30.80;55.10
10964;DHT22;5534;48.784;9.190;2022-07-18T15:14:19;31.20;54.00
10964;DHT22;5534;48.784;9.190;2022-07-18T15:16:45;31.20;55.30
10964;DHT22;5534;48.784;9.190;2022-07-18T15:19:11;31.00;54.80
10964;DHT22;5534;48.784;9.190;2022-07-18T15:21:37;31.10;55.60
10964;DHT22;5534;48.784;9.190;2022-07-18T15:24:02;31.20;54.20
10964;DHT22;5534;48.784;9.190;2022-07-18T15:26:29;31.00;54.60
10964;DHT22;5534;48.784;9.190;2022-07-18T15:28:55;31.10;54.10
10964;DHT22;5534;48.784;9.190;2022-07-18T15:31:21;31.00;56.20
10964;DHT22;5534;48.784;9.190;2022-07-18T15:33:47;30.80;56.30
10964;DHT22;5534;48.784;9.190;2022-07-18T15:36:12;30.70;56.50
10964;DHT22;5534;48.784;9.190;2022-07-18T15:38:38;30.90;54.80
10964;DHT22;5534;48.784;9.190;2022-07-18T15:41:08;31.00;55.70
10964;DHT22;5534;48.784;9.190;2022-07-18T15:43:35;31.10;53.70
10964;DHT22;5534;48.784;9.190;2022-07-18T15:46:01;31.10;55.20
10964;DHT22;5534;48.784;9.190;2022-07-18T15:48:27;30.90;60.20
10964;DHT22;5534;48.784;9.190;2022-07-18T15:50:53;30.90;57.80
10964;DHT22;5534;48.784;9.190;2022-07-18T15:53:18;30.90;55.20
10964;DHT22;5534;48.784;9.190;2022-07-18T15:55:44;31.00;59.20
10964;DHT22;5534;48.784;9.190;2022-07-18T15:58:10;30.90;55.40
10964;DHT22;5534;48.784;9.190;2022-07-18T16:00:36;31.30;54.20
10964;DHT22;5534;48.784;9.190;2022-07-18T16:03:02;31.40;53.90
10964;DHT22;5534;48.784;9.190;2022-07-18T16:05:28;31.30;53.50
10964;DHT22;5534;48.784;9.190;2022-07-18T16:07:54;31.20;54.00
10964;DHT22;5534;48.784;9.190;2022-07-18T16:10:20;31.20;54.10
10964;DHT22;5534;48.784;9.190;2022-07-18T16:12:46;31.00;53.00
10964;DHT22;5534;48.784;9.190;2022-07-18T16:15:12;31.00;53.50
10964;DHT22;5534;48.784;9.190;2022-07-18T16:17:38;31.00;54.70
10964;DHT22;5534;48.784;9.190;2022-07-18T16:20:05;30.80;56.40
10964;DHT22;5534;48.784;9.190;2022-07-18T16:22:31;30.80;53.40
10964;DHT22;5534;48.784;9.190;2022-07-18T16:24:57;30.80;56.50
10964;DHT22;5534;48.784;9.190;2022-07-18T16:27:23;30.60;57.00
10964;DHT22;5534;48.784;9.190;2022-07-18T16:29:48;30.70;54.70
10964;DHT22;5534;48.784;9.190;2022-07-18T16:32:14;30.60;56.10
10964;DHT22;5534;48.784;9.190;2022-07-18T16:34:40;30.70;53.90
10964;DHT22;5534;48.784;9.190;2022-07-18T16:37:06;30.80;54.00
10964;DHT22;5534;48.784;9.190;2022-07-18T16:39:32;30.90;53.40
10964;DHT22;5534;48.784;9.190;2022-07-18T16:41:58;30.80;54.60
10964;DHT22;5534;48.784;9.190;2022-07-18T16:44:24;30.80;53.90
10964;DHT22;5534;48.784;9.190;2022-07-18T16:46:51;31.00;53.00
10964;DHT22;5534;48.784;9.190;2022-07-18T16:49:18;30.80;54.80